Time;durP1;ratioP1;P1;durP2;ratioP2;P2;SDS_P1;SDS_P2;PMS_P1;PMS_P2;Temp;Humidity;BMP_temperature;BMP_pressure;BME280_temperature;BME280_humidity;BME280_pressure;Samples;Min_cycle;Max_cycle;Signal;HPM_P1;HPM_P2
2022/06/14 00:01:13;;;;;;;5.47;1.90;;;;;;;10.29;72.55;102343.09;4987670;28;20054;-71
2022/06/14 00:03:41;;;;;;;6.43;2.00;;;;;;;10.27;72.79;102336.84;4992646;28;20453;-70
2022/06/14 00:06:16;;;;;;;6.72;2.30;;;;;;;10.25;72.69;102341.47;5003271;28;20030;-70
2022/06/14 00:08:42;;;;;;;3.58;1.80;;;;;;;10.22;72.39;102340.63;4989217;28;20049;-70
2022/06/14 00:11:14;;;;;;;7.78;2.08;;;;;;;10.23;72.76;102344.22;4989049;28;20029;-70
2022/06/14 00:13:40;;;;;;;6.68;2.67;;;;;;;10.22;72.42;102339.75;4988818;28;20037;-71
2022/06/14 00:16:06;;;;;;;9.95;2.20;;;;;;;10.19;72.85;102340.75;4988166;28;20030;-69
2022/06/14 00:18:31;;;;;;;4.30;1.90;;;;;;;10.13;73.60;102340.19;4988604;28;20046;-71
2022/06/14 00:20:57;;;;;;;7.72;2.30;;;;;;;10.08;73.48;102339.50;4970939;28;20112;-71
2022/06/14 00:23:22;;;;;;;7.75;1.85;;;;;;;10.03;73.31;102347.00;4988952;28;20037;-71
2022/06/14 00:25:52;;;;;;;5.57;2.08;;;;;;;10.00;72.76;102342.59;4971386;28;20547;-70
2022/06/14 00:28:19;;;;;;;9.10;2.10;;;;;;;10.00;72.92;102341.69;4989021;28;20034;-71
2022/06/14 00:30:48;;;;;;;2.92;1.80;;;;;;;9.99;72.98;102342.66;4988140;28;20156;-71
2022/06/14 00:33:13;;;;;;;2.72;1.67;;;;;;;9.97;73.17;102346.31;4970439;28;20034;-69
2022/06/14 00:35:39;;;;;;;5.53;2.10;;;;;;;9.94;73.85;102335.59;5007333;28;20050;-71
2022/06/14 00:38:04;;;;;;;5.25;2.75;;;;;;;9.90;73.79;102344.84;5008233;28;20036;-71
2022/06/14 00:40:35;;;;;;;5.20;2.22;;;;;;;9.87;73.90;102350.41;5006367;28;20418;-71
2022/06/14 00:43:04;;;;;;;4.80;1.92;;;;;;;9.81;73.87;102344.38;4988446;28;20047;-71
2022/06/14 00:45:30;;;;;;;6.63;2.15;;;;;;;9.76;73.95;102341.88;4987818;28;20453;-71
2022/06/14 00:48:02;;;;;;;4.25;1.92;;;;;;;9.69;73.65;102341.25;4987401;28;20081;-71
2022/06/14 00:50:32;;;;;;;7.00;2.83;;;;;;;9.60;75.08;102332.63;4987944;28;20038;-71
2022/06/14 00:53:03;;;;;;;5.55;2.20;;;;;;;9.56;74.57;102334.63;4988334;28;20085;-70
2022/06/14 00:55:46;;;;;;;7.95;2.35;;;;;;;9.54;73.69;102333.78;4970823;28;20054;-71
2022/06/14 00:58:18;;;;;;;6.00;2.42;;;;;;;9.49;74.87;102333.09;4969984;28;20157;-71
2022/06/14 01:01:04;;;;;;;5.85;2.22;;;;;;;9.44;74.84;102325.16;4970274;28;20042;-71
2022/06/14 01:03:38;;;;;;;8.02;2.28;;;;;;;9.40;75.08;102319.91;4989075;28;20072;-71
2022/06/14 01:06:10;;;;;;;4.57;1.70;;;;;;;9.36;74.68;102316.44;5005498;28;20458;-70
2022/06/14 01:08:44;;;;;;;3.53;1.90;;;;;;;9.37;74.48;102318.25;4982755;28;20052;-70
2022/06/14 01:11:14;;;;;;;4.47;2.10;;;;;;;9.38;74.48;102324.56;5000803;28;20163;-71
2022/06/14 01:13:41;;;;;;;3.40;2.20;;;;;;;9.36;74.54;102315.56;4970062;28;20537;-70
2022/06/14 01:16:09;;;;;;;4.15;2.00;;;;;;;9.36;74.30;102319.16;4987377;28;20618;-69
2022/06/14 01:18:36;;;;;;;16.80;2.55;;;;;;;9.34;75.24;102323.78;4987985;28;20061;-71
2022/06/14 01:21:01;;;;;;;3.78;2.10;;;;;;;9.29;75.26;102325.84;4987478;28;20038;-71
2022/06/14 01:23:27;;;;;;;5.15;2.00;;;;;;;9.29;74.77;102325.84;4987449;28;20536;-69
2022/06/14 01:25:57;;;;;;;3.03;1.80;;;;;;;9.30;74.50;102333.03;4988413;28;20502;-70
2022/06/14 01:28:25;;;;;;;4.60;2.10;;;;;;;9.27;75.44;102319.56;4968993;28;20037;-70
2022/06/14 01:30:52;;;;;;;3.50;2.40;;;;;;;9.26;74.65;102322.34;4987345;28;20038;-71
2022/06/14 01:33:40;;;;;;;5.13;2.30;;;;;;;9.23;74.12;102315.22;4969344;28;20027;-70
2022/06/14 01:36:29;;;;;;;3.78;1.80;;;;;;;9.18;74.30;102318.13;4996016;28;20038;-70
2022/06/14 01:38:55;;;;;;;3.65;1.98;;;;;;;9.17;74.92;102318.19;4988266;28;20041;-69
2022/06/14 01:41:49;;;;;;;3.55;1.80;;;;;;;9.13;74.40;102324.72;4970727;28;20128;-71
2022/06/14 01:44:41;;;;;;;3.72;1.70;;;;;;;9.08;74.31;102313.16;4986510;28;20050;-70
2022/06/14 01:47:19;;;;;;;5.40;1.67;;;;;;;9.02;75.03;102314.31;4986333;28;20038;-70
2022/06/14 01:52:57;;;;;;;7.10;1.77;;;;;;;9.00;74.85;102318.03;4987665;28;20531;-71
2022/06/14 01:55:44;;;;;;;6.80;1.85;;;;;;;8.97;74.18;102301.91;4988043;28;20038;-70
2022/06/14 01:58:24;;;;;;;7.38;2.55;;;;;;;8.92;75.41;102304.81;4986469;28;20138;-70
2022/06/14 02:01:33;;;;;;;4.78;2.97;;;;;;;8.91;74.54;102314.78;4986336;28;20054;-70
2022/06/14 02:04:37;;;;;;;5.15;2.10;;;;;;;8.88;74.89;102314.00;4992603;28;20544;-69
2022/06/14 02:07:17;;;;;;;3.80;2.30;;;;;;;8.82;75.12;102304.31;5007065;28;20037;-70
2022/06/14 02:10:33;;;;;;;5.93;2.58;;;;;;;8.79;75.04;102303.53;5007164;28;20037;-70
2022/06/14 02:13:23;;;;;;;5.82;2.30;;;;;;;8.71;75.51;102293.00;4970338;28;20129;-70
2022/06/14 02:16:09;;;;;;;6.25;2.20;;;;;;;8.65;76.44;102294.13;4990616;28;20486;-70
2022/06/14 02:18:43;;;;;;;8.18;2.80;;;;;;;8.62;76.48;102298.81;4990592;28;20069;-70
2022/06/14 02:21:16;;;;;;;4.78;2.53;;;;;;;8.59;75.97;102291.69;4990977;28;20046;-70
2022/06/14 02:23:55;;;;;;;4.03;2.20;;;;;;;8.58;75.91;102289.94;4991401;28;20030;-70
2022/06/14 02:26:29;;;;;;;3.53;2.20;;;;;;;8.55;75.98;102295.47;4974006;28;20150;-70
2022/06/14 02:29:10;;;;;;;10.40;2.80;;;;;;;8.49;76.08;102293.00;4991215;28;20469;-70
2022/06/14 02:31:41;;;;;;;5.72;2.33;;;;;;;8.38;77.30;102285.28;4990297;28;20549;-70
2022/06/14 02:34:13;;;;;;;9.82;2.65;;;;;;;8.34;77.35;102278.19;4979735;28;20034;-69
2022/06/14 02:36:53;;;;;;;5.80;2.70;;;;;;;8.35;76.33;102279.97;4992993;28;20061;-70
2022/06/14 02:39:29;;;;;;;6.32;2.45;;;;;;;8.34;76.64;102278.19;5010782;28;20080;-70
2022/06/14 02:42:03;;;;;;;4.72;2.42;;;;;;;8.35;76.61;102284.53;4992964;28;20535;-70
2022/06/14 02:44:38;;;;;;;6.40;2.65;;;;;;;8.34;76.50;102274.59;4990118;28;20094;-70
2022/06/14 02:47:25;;;;;;;3.08;2.10;;;;;;;8.32;76.38;102276.50;4971698;28;20121;-70
2022/06/14 02:50:21;;;;;;;6.57;2.75;;;;;;;8.28;76.02;102270.31;4990038;28;20046;-69
2022/06/14 02:52:54;;;;;;;4.25;2.47;;;;;;;8.25;76.75;102278.56;4956209;28;20325;-69
2022/06/14 02:55:26;;;;;;;4.72;2.35;;;;;;;8.24;76.62;102282.22;4990777;28;20045;-69
2022/06/14 02:58:17;;;;;;;6.22;2.20;;;;;;;8.22;76.54;102275.09;4973606;28;20035;-70
2022/06/14 03:00:48;;;;;;;2.33;2.05;;;;;;;8.19;77.04;102276.09;5009638;28;20049;-69
2022/06/14 03:03:21;;;;;;;4.32;2.17;;;;;;;8.15;77.19;102278.03;4992481;28;20054;-70
2022/06/14 03:05:56;;;;;;;5.93;2.33;;;;;;;8.12;76.93;102270.03;4972826;28;20512;-70
2022/06/14 03:08:30;;;;;;;3.67;2.13;;;;;;;8.10;77.59;102277.34;4990653;28;20042;-69
2022/06/14 03:11:06;;;;;;;5.05;2.33;;;;;;;8.09;77.35;102278.28;4973585;28;20104;-70
2022/06/14 03:13:54;;;;;;;3.20;1.88;;;;;;;8.08;76.96;102276.53;4990199;28;20065;-70
2022/06/14 03:16:35;;;;;;;10.32;2.60;;;;;;;8.07;77.71;102272.06;4988824;28;20048;-70
2022/06/14 03:19:21;;;;;;;7.15;2.50;;;;;;;8.06;76.21;102272.09;4989640;28;20560;-70
2022/06/14 03:22:17;;;;;;;3.75;2.10;;;;;;;8.07;76.63;102282.00;4990218;28;20490;-70
2022/06/14 03:25:01;;;;;;;5.13;2.17;;;;;;;8.07;76.37;102276.59;4972780;28;20046;-70
2022/06/14 03:27:33;;;;;;;4.30;2.30;;;;;;;8.05;77.14;102279.34;5000312;28;20056;-70
2022/06/14 03:30:23;;;;;;;7.00;3.07;;;;;;;8.04;77.21;102277.59;4991471;28;20077;-70
2022/06/14 03:33:00;;;;;;;7.28;2.90;;;;;;;8.04;77.47;102283.00;4995698;28;20785;-70
2022/06/14 03:35:30;;;;;;;6.15;2.67;;;;;;;8.01;77.58;102282.22;5006975;28;20038;-68
2022/06/14 03:38:01;;;;;;;6.03;3.63;;;;;;;7.97;78.06;102277.88;5009616;28;20121;-69
2022/06/14 03:40:26;;;;;;;6.75;2.92;;;;;;;7.93;77.95;102283.44;4996138;28;20529;-69
2022/06/14 03:42:52;;;;;;;8.45;2.45;;;;;;;7.91;78.67;102279.88;4990385;28;20074;-70
2022/06/14 03:45:23;;;;;;;7.32;2.83;;;;;;;7.92;78.09;102278.03;4989100;28;20026;-70
2022/06/14 03:47:48;;;;;;;4.93;3.22;;;;;;;7.92;78.49;102280.75;4988292;28;20125;-70
2022/06/14 03:50:23;;;;;;;3.30;2.40;;;;;;;7.92;78.46;102275.34;4989023;28;20685;-70
2022/06/14 03:53:15;;;;;;;5.75;2.80;;;;;;;7.92;77.36;102273.50;4989264;28;20040;-71
2022/06/14 03:56:28;;;;;;;6.10;2.78;;;;;;;7.90;77.84;102272.69;4988871;28;20038;-70
2022/06/14 03:59:13;;;;;;;7.50;2.53;;;;;;;7.92;77.13;102273.50;4982397;28;20529;-70
2022/06/14 04:01:48;;;;;;;4.45;2.42;;;;;;;7.92;77.95;102275.34;4988123;28;20110;-70
2022/06/14 04:04:34;;;;;;;5.07;2.90;;;;;;;7.87;78.73;102272.81;4996822;28;20121;-70
2022/06/14 04:07:18;;;;;;;6.00;2.63;;;;;;;7.88;78.50;102276.38;5008918;28;20053;-69
2022/06/14 04:10:12;;;;;;;4.90;2.65;;;;;;;7.90;78.51;102282.66;5000200;28;20577;-70
2022/06/14 04:12:42;;;;;;;4.57;2.55;;;;;;;7.93;78.15;102288.84;4989380;28;20042;-70
2022/06/14 04:15:29;;;;;;;5.40;2.72;;;;;;;7.95;77.97;102286.06;4988424;28;20424;-70
2022/06/14 04:21:07;;;;;;;5.45;3.10;;;;;;;8.02;78.94;102289.41;4988609;28;20038;-70
2022/06/14 04:23:54;;;;;;;5.72;3.03;;;;;;;8.04;77.88;102293.84;4988701;28;20034;-70
2022/06/14 04:26:24;;;;;;;3.78;2.55;;;;;;;8.05;78.77;102289.31;4989262;28;20096;-70
2022/06/14 04:29:00;;;;;;;4.13;2.55;;;;;;;8.06;78.38;102291.94;4955050;28;20455;-70
2022/06/14 04:31:54;;;;;;;6.82;2.88;;;;;;;8.12;78.56;102309.81;4987845;28;20042;-68
2022/06/14 04:34:37;;;;;;;4.47;3.00;;;;;;;8.14;78.68;102306.09;4942302;28;20058;-70
2022/06/14 04:37:08;;;;;;;7.50;3.13;;;;;;;8.17;79.40;102295.13;4988609;28;20045;-69
2022/06/14 04:39:49;;;;;;;4.63;2.92;;;;;;;8.20;79.28;102302.25;4988984;28;20042;-70
2022/06/14 04:42:24;;;;;;;4.93;2.70;;;;;;;8.24;78.77;102303.03;4988495;28;20046;-70
2022/06/14 04:44:56;;;;;;;11.73;2.97;;;;;;;8.30;78.83;102300.06;4988215;28;20050;-70
2022/06/14 04:47:42;;;;;;;5.78;3.28;;;;;;;8.36;78.68;102299.84;4963507;28;20041;-70
2022/06/14 04:50:32;;;;;;;9.80;3.15;;;;;;;8.43;77.96;102304.09;5007539;28;20046;-69
2022/06/14 04:53:03;;;;;;;7.72;3.15;;;;;;;8.49;78.92;102305.69;5008157;28;20029;-70
2022/06/14 04:55:35;;;;;;;6.50;3.53;;;;;;;8.55;78.76;102295.47;4998238;28;20034;-70
2022/06/14 04:58:09;;;;;;;6.88;4.15;;;;;;;8.61;78.85;102292.50;4988141;28;20049;-69
2022/06/14 05:00:44;;;;;;;5.57;4.07;;;;;;;8.66;78.20;102292.31;4987762;28;20564;-70
2022/06/14 05:03:20;;;;;;;9.02;4.13;;;;;;;8.72;78.37;102294.78;4986844;28;20161;-69
2022/06/14 05:06:06;;;;;;;11.25;6.03;;;;;;;8.79;78.44;102303.53;4970594;28;20042;-70
2022/06/14 05:08:39;;;;;;;7.78;6.88;;;;;;;8.89;78.47;102307.63;4996069;28;20132;-70
2022/06/14 05:11:15;;;;;;;7.00;5.97;;;;;;;8.94;78.12;102301.06;4988195;28;20501;-70
2022/06/14 05:13:54;;;;;;;9.32;6.43;;;;;;;9.02;77.88;102305.28;4987487;28;20813;-70
2022/06/14 05:16:29;;;;;;;9.57;6.65;;;;;;;9.07;78.07;102300.53;4986929;28;20124;-70
2022/06/14 05:19:13;;;;;;;12.00;6.43;;;;;;;9.15;78.39;102307.41;4987628;28;20494;-70
2022/06/14 05:21:45;;;;;;;14.13;8.18;;;;;;;9.23;78.46;102309.78;4987492;28;20034;-70
2022/06/14 05:24:10;;;;;;;13.65;7.82;;;;;;;9.31;79.31;102302.19;4969909;28;20034;-70
2022/06/14 05:26:45;;;;;;;13.90;8.27;;;;;;;9.44;79.33;102308.84;4977929;28;20042;-70
2022/06/14 05:29:31;;;;;;;13.13;8.40;;;;;;;9.85;77.64;102305.22;4996165;28;20053;-70
2022/06/14 05:32:00;;;;;;;11.48;7.32;;;;;;;9.94;77.42;102300.25;4999767;28;20050;-70
2022/06/14 05:34:50;;;;;;;13.32;7.80;;;;;;;9.96;77.59;102302.88;4997245;28;20017;-70
2022/06/14 05:37:22;;;;;;;15.55;7.72;;;;;;;10.02;78.05;102308.03;5007375;28;20471;-70
2022/06/14 05:39:59;;;;;;;14.45;8.40;;;;;;;10.08;78.72;102305.03;4985487;28;20541;-70
2022/06/14 05:42:34;;;;;;;16.02;7.47;;;;;;;10.13;78.28;102308.44;4989023;28;20447;-69
2022/06/14 05:45:02;;;;;;;10.70;6.78;;;;;;;10.17;78.99;102306.44;5006873;28;20049;-70
2022/06/14 05:47:47;;;;;;;11.88;8.05;;;;;;;10.21;79.19;102306.25;4991922;28;20490;-69
2022/06/14 05:50:20;;;;;;;18.83;8.10;;;;;;;10.27;82.37;102313.25;4986556;28;20509;-70
2022/06/14 05:52:52;;;;;;;15.65;8.05;;;;;;;10.33;81.74;102307.50;4987236;28;20042;-70
2022/06/14 05:55:38;;;;;;;12.30;7.03;;;;;;;10.38;81.93;102310.88;4987826;28;20104;-71
2022/06/14 05:58:17;;;;;;;13.77;6.13;;;;;;;10.47;82.98;102310.44;4969217;28;20109;-70
2022/06/14 06:00:50;;;;;;;16.20;7.55;;;;;;;10.55;83.13;102318.25;4986551;28;20077;-69
2022/06/14 06:03:31;;;;;;;19.88;6.75;;;;;;;10.64;83.55;102315.06;4985678;28;20184;-70
2022/06/14 06:06:00;;;;;;;12.30;7.30;;;;;;;10.70;83.61;102308.44;4986383;28;20046;-70
2022/06/14 06:08:38;;;;;;;13.27;6.55;;;;;;;10.80;82.52;102320.63;5003283;28;20064;-69
2022/06/14 06:11:17;;;;;;;15.40;6.72;;;;;;;10.87;81.79;102316.66;5006712;28;20069;-70
2022/06/14 06:13:51;;;;;;;13.88;5.43;;;;;;;10.92;80.67;102316.44;4998234;28;20084;-70
2022/06/14 06:16:48;;;;;;;14.32;5.30;;;;;;;11.06;80.72;102319.31;5005220;28;20068;-70
2022/06/14 06:19:23;;;;;;;19.75;5.57;;;;;;;11.23;79.89;102318.44;4986879;28;20077;-70
2022/06/14 06:21:53;;;;;;;10.60;4.30;;;;;;;11.34;77.23;102321.50;4988095;28;20445;-70
2022/06/14 06:24:25;;;;;;;13.85;4.97;;;;;;;11.47;76.46;102325.38;5005683;28;20398;-70
2022/06/14 06:26:59;;;;;;;9.30;4.78;;;;;;;11.59;75.73;102320.22;5003986;28;20048;-70
2022/06/14 06:29:41;;;;;;;15.95;4.90;;;;;;;11.68;76.48;102311.56;4986385;28;20446;-70
2022/06/14 06:32:07;;;;;;;11.33;5.07;;;;;;;11.75;76.04;102324.78;5001303;28;20121;-70
2022/06/14 06:34:34;;;;;;;10.35;4.28;;;;;;;11.83;74.30;102323.50;4994761;28;20292;-70
2022/06/14 06:37:05;;;;;;;16.40;5.20;;;;;;;11.91;74.91;102316.69;5004320;28;20037;-70
2022/06/14 06:39:42;;;;;;;12.73;4.60;;;;;;;11.93;75.88;102324.75;4999634;28;20040;-69
2022/06/14 06:42:12;;;;;;;16.48;4.30;;;;;;;11.99;74.25;102327.19;5003561;28;20054;-71
2022/06/14 06:44:46;;;;;;;10.25;3.70;;;;;;;12.08;72.75;102331.25;4999363;28;20042;-71
2022/06/14 06:47:20;;;;;;;6.90;3.22;;;;;;;12.15;68.62;102335.38;4981523;28;20042;-71
2022/06/14 06:50:01;;;;;;;13.63;3.65;;;;;;;12.23;70.08;102324.94;4985652;28;20533;-69
2022/06/14 06:52:40;;;;;;;8.25;3.30;;;;;;;12.26;69.96;102327.47;4962337;28;20034;-71
2022/06/14 06:55:22;;;;;;;12.93;3.40;;;;;;;12.31;69.25;102329.94;4981257;28;20051;-71
2022/06/14 06:57:50;;;;;;;7.90;2.92;;;;;;;12.35;70.45;102316.03;4986336;28;20498;-70
2022/06/14 07:00:18;;;;;;;12.02;3.63;;;;;;;12.41;70.02;102321.19;4987493;28;20508;-71
2022/06/14 07:02:51;;;;;;;6.13;2.90;;;;;;;12.49;68.91;102320.72;4970966;28;20046;-70
2022/06/14 07:05:17;;;;;;;;;;;;;;;12.58;68.94;102330.25;4984836;28;20046;-71
2022/06/14 07:07:51;;;;;;;7.35;2.65;;;;;;;12.63;67.62;102315.34;4990699;28;19920;-71
2022/06/14 07:10:29;;;;;;;7.47;2.53;;;;;;;12.73;64.15;102323.91;4989073;28;20042;-71
2022/06/14 07:13:03;;;;;;;14.32;3.03;;;;;;;12.79;64.92;102320.81;4993024;28;20154;-71
2022/06/14 07:15:52;;;;;;;11.25;2.70;;;;;;;12.84;62.76;102321.44;4988231;28;20449;-71
2022/06/14 07:18:21;;;;;;;6.70;1.90;;;;;;;12.87;60.06;102323.09;4988629;28;20835;-71
2022/06/14 07:20:59;;;;;;;3.20;1.70;;;;;;;12.90;61.75;102333.84;4971351;28;20058;-71
2022/06/14 07:23:24;;;;;;;6.50;1.83;;;;;;;12.99;61.46;102334.19;4989664;28;20130;-72
2022/06/14 07:26:30;;;;;;;6.53;1.90;;;;;;;13.09;63.53;102325.44;4967654;28;20044;-71
2022/06/14 07:29:03;;;;;;;5.18;1.77;;;;;;;13.18;60.60;102327.63;4966031;28;20497;-72
2022/06/14 07:32:08;;;;;;;9.90;1.73;;;;;;;13.26;61.79;102322.63;5006443;28;20362;-71
2022/06/14 07:34:34;;;;;;;4.53;1.88;;;;;;;13.30;61.56;102321.47;5004386;28;20117;-69
2022/06/14 07:37:47;;;;;;;7.05;2.10;;;;;;;13.37;63.94;102335.63;5006092;28;20084;-71
2022/06/14 07:40:21;;;;;;;5.35;2.00;;;;;;;13.41;63.80;102331.75;4927877;29;20050;-70
2022/06/14 07:42:57;;;;;;;7.20;2.33;;;;;;;13.46;61.63;102319.56;4912620;29;20043;-71
2022/06/14 07:45:31;;;;;;;6.57;1.73;;;;;;;13.53;62.48;102320.09;4975410;28;20053;-72
2022/06/14 07:47:57;;;;;;;9.55;1.75;;;;;;;13.60;59.35;102321.44;5001500;28;20072;-71
2022/06/14 07:50:53;;;;;;;7.38;2.42;;;;;;;13.65;60.56;102322.03;4990647;28;20450;-72
2022/06/14 07:53:39;;;;;;;6.53;2.08;;;;;;;13.72;62.30;102319.81;5008236;28;20041;-71
2022/06/14 07:56:11;;;;;;;6.68;2.58;;;;;;;13.78;59.24;102319.44;5004597;28;20042;-71
2022/06/14 07:58:55;;;;;;;5.45;1.88;;;;;;;13.88;64.85;102317.88;4988624;28;20554;-71
2022/06/14 08:01:30;;;;;;;6.28;1.70;;;;;;;14.11;64.04;102318.28;4989477;28;20053;-70
2022/06/14 08:04:21;;;;;;;8.05;1.83;;;;;;;14.23;59.78;102320.25;5005919;28;20045;-69
2022/06/14 08:07:11;;;;;;;9.27;2.13;;;;;;;14.61;60.18;102314.16;5007817;28;20167;-70
2022/06/14 08:09:47;;;;;;;3.33;1.50;;;;;;;15.35;56.65;102307.31;5005867;28;20063;-72
2022/06/14 08:12:20;;;;;;;7.13;2.00;;;;;;;15.78;57.28;102310.69;4987463;28;20088;-72
2022/06/14 08:14:59;;;;;;;6.70;1.70;;;;;;;15.92;55.37;102299.63;4989354;28;20548;-72
2022/06/14 08:17:39;;;;;;;5.25;2.08;;;;;;;16.68;58.39;102311.44;4998632;28;20094;-74
2022/06/14 08:20:20;;;;;;;6.22;1.80;;;;;;;17.53;56.25;102301.25;4987654;28;20038;-72
2022/06/14 08:22:51;;;;;;;6.68;2.20;;;;;;;18.20;54.52;102300.53;4989530;28;20848;-72
2022/06/14 08:25:24;;;;;;;5.57;1.83;;;;;;;18.71;48.18;102300.03;4994631;28;20041;-72
2022/06/14 08:28:06;;;;;;;6.93;1.90;;;;;;;19.24;48.82;102302.84;4987736;28;20109;-72
2022/06/14 08:30:37;;;;;;;;;;;;;;;19.56;53.32;102294.53;4987388;28;20038;-72
2022/06/14 08:33:09;;;;;;;5.43;2.30;;;;;;;20.01;46.06;102305.34;4988914;28;20332;-72
2022/06/14 08:35:43;;;;;;;6.22;2.17;;;;;;;20.01;46.63;102289.63;4988639;28;20127;-72
2022/06/14 08:38:17;;;;;;;6.90;2.00;;;;;;;20.26;44.79;102285.53;4990341;28;20041;-72
2022/06/14 08:41:20;;;;;;;9.68;2.60;;;;;;;20.00;46.70;102293.38;5006504;28;20033;-71
2022/06/14 08:43:58;;;;;;;5.03;2.50;;;;;;;20.20;47.37;102290.75;5002816;28;20034;-72
2022/06/14 08:46:46;;;;;;;8.48;2.42;;;;;;;20.60;47.78;102283.31;4983458;28;20077;-72
2022/06/14 08:49:36;;;;;;;5.07;2.30;;;;;;;21.19;45.36;102297.28;4987333;28;20046;-73
2022/06/14 08:52:32;;;;;;;7.85;2.25;;;;;;;21.41;45.00;102298.91;4969344;28;20042;-73
2022/06/14 08:55:30;;;;;;;5.07;2.20;;;;;;;21.54;45.29;102289.28;4987859;28;20046;-71
2022/06/14 08:58:29;;;;;;;4.10;2.08;;;;;;;21.49;43.59;102285.19;4987702;28;20038;-69
2022/06/14 09:01:18;;;;;;;7.65;2.20;;;;;;;21.46;40.29;102294.69;4987056;28;20348;-72
2022/06/14 09:04:27;;;;;;;8.02;2.75;;;;;;;21.62;46.01;102286.63;4990433;28;20397;-71
2022/06/14 09:07:00;;;;;;;4.18;2.30;;;;;;;22.09;42.45;102283.00;4988312;28;20177;-72
2022/06/14 09:10:00;;;;;;;9.27;2.50;;;;;;;22.22;42.52;102289.13;4987825;28;20073;-68
2022/06/14 09:12:37;;;;;;;6.90;2.28;;;;;;;22.01;42.71;102286.56;4996315;28;20080;-69
2022/06/14 09:15:23;;;;;;;4.78;2.00;;;;;;;22.49;44.06;102279.94;5006265;28;20093;-73
2022/06/14 09:18:36;;;;;;;7.85;2.45;;;;;;;23.21;42.77;102277.28;4987067;28;20099;-73
2022/06/14 09:21:31;;;;;;;6.05;2.50;;;;;;;22.89;39.24;102276.78;5003127;28;20038;-73
2022/06/14 09:24:44;;;;;;;7.50;2.60;;;;;;;22.34;40.05;102279.59;5004708;28;20489;-71
2022/06/14 09:27:38;;;;;;;4.05;2.45;;;;;;;22.30;41.18;102283.69;4989970;28;20050;-73
2022/06/14 09:30:23;;;;;;;9.35;3.05;;;;;;;22.18;41.26;102279.34;4968102;28;20035;-72
2022/06/14 09:33:09;;;;;;;9.27;2.75;;;;;;;22.49;40.93;102282.72;4984544;28;20108;-73
2022/06/14 09:36:14;;;;;;;7.60;3.65;;;;;;;22.37;39.16;102273.72;4987187;28;20034;-73
2022/06/14 09:39:17;;;;;;;5.40;2.65;;;;;;;23.07;43.09;102270.38;4987536;28;20046;-73
2022/06/14 09:42:06;;;;;;;6.82;2.75;;;;;;;23.73;40.40;102269.06;4994142;28;20031;-73
2022/06/14 09:45:01;;;;;;;5.35;2.53;;;;;;;23.90;38.27;102259.81;4985677;28;20041;-73
2022/06/14 09:47:35;;;;;;;5.50;2.88;;;;;;;23.86;37.80;102261.19;4985356;28;20038;-73
2022/06/14 09:50:30;;;;;;;4.80;3.42;;;;;;;23.17;36.34;102258.19;4986634;28;20042;-72
2022/06/14 09:53:01;;;;;;;7.57;3.47;;;;;;;22.41;37.82;102252.97;4995286;28;20344;-68
2022/06/14 09:55:43;;;;;;;5.10;3.07;;;;;;;22.59;40.08;102264.13;5005547;28;20355;-73
2022/06/14 09:58:40;;;;;;;8.20;2.85;;;;;;;22.55;39.55;102247.94;4984180;28;20049;-71
2022/06/14 10:01:26;;;;;;;6.05;2.88;;;;;;;22.77;41.74;102241.97;5001559;28;20072;-73
2022/06/14 10:04:30;;;;;;;3.97;2.65;;;;;;;23.61;41.67;102247.09;4991084;28;20120;-72
2022/06/14 10:07:11;;;;;;;5.95;2.90;;;;;;;23.43;37.78;102246.25;5006744;28;20497;-69
2022/06/14 10:09:57;;;;;;;6.47;2.92;;;;;;;22.66;39.05;102247.72;4993815;28;20038;-73
2022/06/14 10:12:55;;;;;;;6.28;3.00;;;;;;;22.77;39.39;102249.41;4987354;28;20129;-73
2022/06/14 10:15:45;;;;;;;5.15;2.72;;;;;;;23.04;42.04;102240.19;4968846;28;20064;-71
2022/06/14 10:18:19;;;;;;;6.38;2.40;;;;;;;24.06;41.86;102236.78;4985065;28;20042;-72
2022/06/14 10:20:53;;;;;;;5.90;2.55;;;;;;;24.03;37.83;102224.09;4986407;28;20072;-72
2022/06/14 10:23:47;;;;;;;6.53;2.50;;;;;;;24.00;37.75;102229.97;4986782;28;20162;-72
2022/06/14 10:29:54;;;;;;;6.63;2.45;;;;;;;24.46;37.03;102230.56;4968049;28;20038;-72
2022/06/14 10:32:31;;;;;;;7.38;2.95;;;;;;;24.16;35.52;102221.75;4984162;28;20054;-72
2022/06/14 10:35:15;;;;;;;8.00;2.92;;;;;;;24.23;36.52;102216.38;4990627;28;20509;-70
2022/06/14 10:37:58;;;;;;;6.78;2.65;;;;;;;24.46;37.67;102208.31;4990118;28;20042;-73
2022/06/14 10:40:45;;;;;;;7.07;3.00;;;;;;;24.99;38.57;102200.59;4990414;28;20113;-72
2022/06/14 10:43:45;;;;;;;7.85;2.97;;;;;;;24.63;36.93;102207.34;4989730;28;20105;-73
2022/06/14 10:46:22;;;;;;;4.80;2.75;;;;;;;24.18;39.99;102199.31;4989763;28;20042;-72
2022/06/14 10:49:12;;;;;;;4.53;2.80;;;;;;;24.21;35.79;102204.56;4989157;28;20065;-72
2022/06/14 10:51:58;;;;;;;5.70;2.75;;;;;;;24.00;36.02;102191.06;4990008;28;20072;-72
2022/06/14 10:55:08;;;;;;;7.45;2.92;;;;;;;24.04;36.41;102194.38;4973008;28;20061;-69
2022/06/14 10:58:21;;;;;;;6.05;2.30;;;;;;;24.01;37.97;102194.72;4989273;28;20045;-72
2022/06/14 11:01:06;;;;;;;5.32;1.95;;;;;;;24.33;36.55;102186.50;4988037;28;20553;-69
2022/06/14 11:03:50;;;;;;;6.32;2.33;;;;;;;25.00;37.71;102180.06;4969968;28;20069;-70
2022/06/14 11:06:30;;;;;;;8.23;2.95;;;;;;;25.57;35.04;102172.56;4988105;28;20038;-72
2022/06/14 11:09:24;;;;;;;5.85;2.35;;;;;;;25.72;34.64;102175.47;4989932;28;20390;-68
2022/06/14 11:12:00;;;;;;;6.70;2.40;;;;;;;25.24;34.99;102168.09;4990239;28;20046;-71
2022/06/14 11:14:33;;;;;;;4.45;2.08;;;;;;;25.41;35.85;102169.78;4988943;28;20112;-72
2022/06/14 11:17:37;;;;;;;5.55;2.40;;;;;;;25.77;36.56;102177.75;4986938;28;20454;-72
2022/06/14 11:20:32;;;;;;;3.95;2.42;;;;;;;26.17;38.15;102168.38;4987502;28;20434;-72
2022/06/14 11:23:10;;;;;;;8.25;2.22;;;;;;;26.66;35.79;102166.19;4988894;28;20283;-70
2022/06/14 11:25:58;;;;;;;7.55;2.15;;;;;;;26.88;35.40;102163.59;4971666;28;20038;-73
2022/06/14 11:28:28;;;;;;;4.47;1.73;;;;;;;27.25;34.61;102159.13;4989663;28;20042;-72
2022/06/14 11:31:03;;;;;;;5.35;1.98;;;;;;;27.00;32.45;102152.84;4989186;28;20498;-72
2022/06/14 11:33:56;;;;;;;3.10;1.83;;;;;;;26.98;33.51;102153.03;4992049;28;20037;-72
2022/06/14 11:36:55;;;;;;;8.90;2.30;;;;;;;26.57;34.50;102158.06;4989555;28;20070;-72
2022/06/14 11:39:49;;;;;;;5.35;2.25;;;;;;;26.39;32.92;102149.94;4988922;28;20048;-71
2022/06/14 11:42:34;;;;;;;6.63;2.90;;;;;;;26.56;33.51;102139.56;5002263;28;20122;-71
2022/06/14 11:45:26;;;;;;;6.60;2.65;;;;;;;26.83;33.44;102135.38;4988598;28;20049;-72
2022/06/14 11:48:15;;;;;;;5.50;2.53;;;;;;;26.57;32.56;102132.94;4987396;28;20056;-69
2022/06/14 11:51:12;;;;;;;5.80;2.70;;;;;;;25.94;31.76;102132.91;4988139;28;20076;-72
2022/06/14 11:53:56;;;;;;;5.95;2.80;;;;;;;25.44;32.72;102139.66;4971781;28;20053;-72
2022/06/14 11:56:40;;;;;;;8.27;2.78;;;;;;;25.13;37.72;102133.06;4989277;28;20061;-70
2022/06/14 11:59:17;;;;;;;4.82;2.30;;;;;;;25.87;35.88;102131.00;4987950;28;20605;-71
2022/06/14 12:02:02;;;;;;;7.22;2.58;;;;;;;25.89;35.12;102131.72;4987401;28;20394;-72
2022/06/14 12:04:43;;;;;;;7.70;3.47;;;;;;;25.37;32.77;102119.13;4998296;28;20046;-72
2022/06/14 12:07:24;;;;;;;6.30;2.58;;;;;;;25.30;33.80;102131.16;4994836;28;20567;-71
2022/06/14 12:10:24;;;;;;;5.85;2.40;;;;;;;25.58;35.94;102126.91;4987867;28;20034;-71
2022/06/14 12:13:17;;;;;;;7.28;2.53;;;;;;;26.26;37.11;102127.34;4971088;28;20042;-72
2022/06/14 12:16:01;;;;;;;7.40;2.72;;;;;;;26.65;36.39;102125.38;4987463;28;20072;-69
2022/06/14 12:18:32;;;;;;;6.18;3.03;;;;;;;26.61;31.86;102120.34;4986497;28;20120;-69
2022/06/14 12:21:16;;;;;;;6.82;2.90;;;;;;;26.91;36.49;102122.22;5003632;28;20189;-71
2022/06/14 12:23:55;;;;;;;6.80;2.78;;;;;;;26.71;32.45;102121.81;4988729;28;20057;-72
2022/06/14 12:26:37;;;;;;;5.70;3.13;;;;;;;26.72;36.30;102114.34;4996151;28;20077;-71
2022/06/14 12:29:12;;;;;;;8.68;3.10;;;;;;;27.07;35.24;102118.38;5006085;28;20041;-71
2022/06/14 12:31:51;;;;;;;6.55;2.95;;;;;;;27.34;33.77;102107.69;4993993;28;20058;-72
2022/06/14 12:34:19;;;;;;;6.22;3.10;;;;;;;27.64;32.07;102108.53;4986472;28;20124;-71
2022/06/14 12:37:01;;;;;;;4.38;2.45;;;;;;;27.88;34.42;102110.19;4998650;28;20477;-73